createdAt,value
2023-04-19T00:01:45.125Z,100033.84
2023-04-19T00:05:48.972Z,100033.88
2023-04-19T00:09:52.034Z,100032.06
2023-04-19T00:13:55.124Z,100025.91
2023-04-19T00:17:59.885Z,100025.03
2023-04-19T00:22:03.074Z,100020.63
2023-04-19T00:26:06.190Z,100017.09
2023-04-19T00:30:10.021Z,100013.56
2023-04-19T00:34:14.834Z,100018.84
2023-04-19T00:38:18.356Z,100005.66
2023-04-19T00:42:21.597Z,100006.50
2023-04-19T00:46:25.656Z,100000.38
2023-04-19T00:50:30.630Z,99984.53
2023-04-19T00:54:34.452Z,99995.06
2023-04-19T00:58:39.811Z,99994.16
2023-04-19T01:02:43.474Z,99981.88
2023-04-19T01:06:49.241Z,99980.97
2023-04-19T01:10:52.337Z,99985.38
2023-04-19T01:14:55.364Z,99980.09
2023-04-19T01:18:58.429Z,99971.31
2023-04-19T01:23:03.902Z,99973.03
2023-04-19T01:27:07.012Z,99969.50
2023-04-19T01:31:10.161Z,99973.00
2023-04-19T01:35:13.406Z,99958.97
2023-04-19T01:39:17.946Z,99973.88
2023-04-19T01:43:20.983Z,99962.44
2023-04-19T01:47:25.128Z,99958.03
2023-04-19T01:51:28.205Z,99954.50
2023-04-19T01:55:33.114Z,99955.38
2023-04-19T01:59:36.282Z,99953.63
2023-04-19T02:03:39.435Z,99951.84
2023-04-19T02:07:42.708Z,99953.63
2023-04-19T02:11:47.100Z,99946.59
2023-04-19T02:15:50.549Z,99948.38
2023-04-19T02:19:54.141Z,99941.34
2023-04-19T02:23:57.187Z,99942.22
2023-04-19T02:28:01.604Z,99929.94
2023-04-19T02:32:06.203Z,99930.84
2023-04-19T02:36:10.135Z,99924.66
2023-04-19T02:40:13.351Z,99930.81
2023-04-19T02:44:18.348Z,99926.44
2023-04-19T02:48:21.592Z,99922.06
2023-04-19T02:52:24.891Z,99920.31
2023-04-19T02:56:27.989Z,99918.56
2023-04-19T03:00:32.886Z,99915.91
2023-04-19T03:04:43.617Z,99911.53
2023-04-19T03:08:47.072Z,99910.66
2023-04-19T03:12:50.905Z,99909.75
2023-04-19T03:16:55.833Z,99908.00
2023-04-19T03:20:59.154Z,99893.97
2023-04-19T03:25:07.345Z,99896.59
2023-04-19T03:29:12.150Z,99894.88
2023-04-19T03:33:20.477Z,99885.19
2023-04-19T03:37:24.178Z,99885.19
2023-04-19T03:41:28.792Z,99880.78
2023-04-19T03:45:49.819Z,99883.44
2023-04-19T03:49:55.067Z,99883.41
2023-04-19T03:53:58.436Z,99875.53
2023-04-19T03:58:01.901Z,99885.19
2023-04-19T04:02:16.907Z,99879.91
2023-04-19T04:06:21.573Z,99880.78
2023-04-19T04:10:25.167Z,99868.50
2023-04-19T04:14:28.564Z,99879.00
2023-04-19T04:18:32.195Z,99883.38
2023-04-19T04:22:44.159Z,99874.59
2023-04-19T04:26:51.561Z,99876.38
2023-04-19T04:30:59.263Z,99880.75
2023-04-19T04:35:07.042Z,99879.88
2023-04-19T04:39:20.077Z,99876.34
2023-04-19T04:43:24.457Z,99881.59
2023-04-19T04:47:32.409Z,99871.06
2023-04-19T04:51:39.034Z,99869.31
2023-04-19T04:55:43.520Z,99869.28
2023-04-19T04:59:49.139Z,99862.25
2023-04-19T05:03:55.148Z,99862.25
2023-04-19T05:07:58.632Z,99857.00
2023-04-19T05:12:03.491Z,99859.66
2023-04-19T05:16:07.609Z,99851.75
2023-04-19T05:20:12.181Z,99850.00
2023-04-19T05:24:15.634Z,99857.03
2023-04-19T05:28:21.287Z,99855.28
2023-04-19T05:32:47.431Z,99853.53
2023-04-19T05:36:51.797Z,99850.00
2023-04-19T05:40:55.612Z,99838.59
2023-04-19T05:45:00.017Z,99842.97
2023-04-19T05:49:04.343Z,99839.47
2023-04-19T05:53:26.433Z,99837.72
2023-04-19T05:57:30.146Z,99828.97
2023-04-19T06:01:35.283Z,99837.75
2023-04-19T06:05:40.547Z,99829.88
2023-04-19T06:09:43.666Z,99829.84
2023-04-19T06:13:47.431Z,99829.00
2023-04-19T06:17:51.961Z,99827.22
2023-04-19T06:21:55.400Z,99829.88
2023-04-19T06:25:58.443Z,99828.13
2023-04-19T06:30:01.714Z,99823.75
2023-04-19T06:34:06.166Z,99834.28
2023-04-19T06:38:09.206Z,99832.53
2023-04-19T06:42:12.535Z,99829.88
2023-04-19T06:46:15.915Z,99825.53
2023-04-19T06:50:20.824Z,99827.28
2023-04-19T06:54:23.865Z,99827.28
2023-04-19T06:58:26.958Z,99823.75
2023-04-19T07:02:30.103Z,99821.13
2023-04-19T07:06:34.666Z,99828.13
2023-04-19T07:10:37.755Z,99821.13
2023-04-19T07:14:40.801Z,99820.25
2023-04-19T07:18:44.495Z,99825.50
2023-04-19T07:22:49.110Z,99824.59
2023-04-19T07:26:52.084Z,99823.72
2023-04-19T07:30:55.300Z,99828.09
2023-04-19T07:34:58.446Z,99818.44
2023-04-19T07:39:02.847Z,99816.66
2023-04-19T07:43:06.750Z,99819.31
2023-04-19T07:47:09.811Z,99814.94
2023-04-19T07:51:13.585Z,99818.44
2023-04-19T07:55:17.968Z,99816.69
2023-04-19T07:59:21.041Z,99818.44
2023-04-19T08:03:24.248Z,99810.53
2023-04-19T08:07:27.441Z,99823.72
2023-04-19T08:11:32.101Z,99814.97
2023-04-19T08:19:41.682Z,99813.19
2023-04-19T08:23:48.204Z,99807.06
2023-04-19T08:27:52.991Z,99813.22
2023-04-19T08:31:56.333Z,99815.00
2023-04-19T08:35:59.406Z,99814.13
2023-04-19T08:40:03.870Z,99811.50
2023-04-19T08:44:08.755Z,99806.22
2023-04-19T08:48:12.670Z,99812.38
2023-04-19T08:52:16.693Z,99812.38
2023-04-19T08:56:34.490Z,99808.88
2023-04-19T09:00:41.368Z,99807.97
2023-04-19T09:04:44.724Z,99806.22
2023-04-19T09:08:47.987Z,99805.34
2023-04-19T09:13:06.122Z,99809.75
2023-04-19T09:17:18.373Z,99809.75
2023-04-19T09:21:29.451Z,99816.75
2023-04-19T09:25:47.163Z,99815.88
2023-04-19T09:29:56.336Z,99815.84
2023-04-19T09:34:14.219Z,99811.47
2023-04-19T09:38:17.824Z,99809.69
2023-04-19T09:42:42.384Z,99823.69
2023-04-19T09:46:45.641Z,99828.97
2023-04-19T09:51:02.377Z,99816.66
2023-04-19T09:55:22.142Z,99811.41
2023-04-19T09:59:28.852Z,99817.59
2023-04-19T10:03:32.778Z,99806.19
2023-04-19T10:07:38.328Z,99814.09
2023-04-19T10:11:42.971Z,99810.63
2023-04-19T10:15:52.685Z,99810.59
2023-04-19T10:20:07.748Z,99808.88
2023-04-19T10:24:14.763Z,99797.47
2023-04-19T10:28:18.052Z,99799.22
2023-04-19T10:32:21.174Z,99795.72
2023-04-19T10:36:28.288Z,99801.84
2023-04-19T10:40:59.110Z,99792.19
2023-04-19T10:45:33.268Z,99788.69
2023-04-19T10:49:46.143Z,99797.47
2023-04-19T10:53:59.631Z,99785.16
2023-04-19T10:58:05.716Z,99781.63
2023-04-19T11:02:29.498Z,99779.84
2023-04-19T11:06:33.200Z,99772.75
2023-04-19T11:10:36.624Z,99770.09
2023-04-19T11:14:43.051Z,99751.63
2023-04-19T11:18:46.120Z,99747.22
2023-04-19T11:22:49.289Z,99755.94
2023-04-19T11:26:54.819Z,99750.56
2023-04-19T11:31:00.197Z,99749.59
2023-04-19T11:35:08.441Z,99747.84
2023-04-19T11:39:12.130Z,99736.34
2023-04-19T11:43:15.327Z,99731.94
2023-04-19T11:47:20.888Z,99747.88
2023-04-19T11:51:23.955Z,99747.00
2023-04-19T11:55:27.398Z,99749.72
2023-04-19T11:59:31.096Z,99755.06
2023-04-19T12:03:36.896Z,99754.22
2023-04-19T12:08:06.331Z,99752.44
2023-04-19T12:12:09.406Z,99753.34
2023-04-19T12:16:13.296Z,99751.59
2023-04-19T12:20:31.643Z,99742.78
2023-04-19T12:24:34.761Z,99741.88
2023-04-19T12:28:37.835Z,99738.38
2023-04-19T12:32:41.043Z,99739.19
2023-04-19T12:36:45.488Z,99734.81
2023-04-19T12:40:48.836Z,99727.75
2023-04-19T12:44:51.901Z,99718.03
2023-04-19T12:48:55.090Z,99706.53
2023-04-19T12:52:59.589Z,99709.09
2023-04-19T12:57:03.548Z,99712.56
2023-04-19T13:01:07.324Z,99716.94
2023-04-19T13:05:12.920Z,99716.06
2023-04-19T13:09:17.825Z,99715.16
2023-04-19T13:13:20.958Z,99716.00
2023-04-19T13:17:23.991Z,99721.28
2023-04-19T13:21:27.929Z,99714.22
2023-04-19T13:25:32.474Z,99716.06
2023-04-19T13:29:35.531Z,99707.31
2023-04-19T13:33:38.598Z,99718.78
2023-04-19T13:37:44.272Z,99712.66
2023-04-19T13:41:48.958Z,99719.75
2023-04-19T13:45:52.099Z,99718.91
2023-04-19T13:49:55.110Z,99716.25
2023-04-19T13:53:58.120Z,99717.94
2023-04-19T13:58:02.522Z,99712.56
2023-04-19T14:02:05.780Z,99716.91
2023-04-19T14:06:09.016Z,99706.25
2023-04-19T14:10:12.438Z,99694.81
2023-04-19T14:14:17.454Z,99688.69
2023-04-19T14:18:20.734Z,99695.72
2023-04-19T14:22:23.753Z,99686.91
2023-04-19T14:26:27.728Z,99685.19
2023-04-19T14:30:32.283Z,99687.03
2023-04-19T14:34:35.304Z,99688.94
2023-04-19T14:38:38.266Z,99694.28
2023-04-19T14:42:41.668Z,99696.94
2023-04-19T14:46:46.564Z,99694.28
2023-04-19T14:50:49.872Z,99696.94
2023-04-19T14:54:52.851Z,99706.69
2023-04-19T14:58:55.989Z,99707.56
2023-04-19T15:03:01.296Z,99703.19
2023-04-19T15:07:04.862Z,99704.94
2023-04-19T15:11:07.889Z,99710.25
2023-04-19T15:15:11.697Z,99709.34
2023-04-19T15:19:16.862Z,99719.03
2023-04-19T15:23:22.204Z,99705.84
2023-04-19T15:27:25.295Z,99698.78
2023-04-19T15:31:28.304Z,99702.28
2023-04-19T15:35:33.398Z,99695.22
2023-04-19T15:39:36.415Z,99696.09
2023-04-19T15:43:39.774Z,99695.19
2023-04-19T15:47:42.913Z,99705.72
2023-04-19T15:51:47.368Z,99712.75
2023-04-19T15:55:50.514Z,99709.19
2023-04-19T15:59:53.572Z,99710.09
2023-04-19T16:03:56.749Z,99719.81
2023-04-19T16:08:04.961Z,99711.00
2023-04-19T16:12:08.302Z,99710.13
2023-04-19T16:16:11.350Z,99714.56
2023-04-19T16:20:14.494Z,99713.69
2023-04-19T16:24:19.030Z,99710.22
2023-04-19T16:28:22.167Z,99710.19
2023-04-19T16:32:25.281Z,99716.31
2023-04-19T16:36:28.537Z,99709.19
2023-04-19T16:40:33.204Z,99712.69
2023-04-19T16:44:36.690Z,99710.97
2023-04-19T16:48:39.812Z,99714.53
2023-04-19T16:52:42.863Z,99727.75
2023-04-19T16:56:47.361Z,99725.19
2023-04-19T17:00:50.459Z,99722.59
2023-04-19T17:04:53.834Z,99741.06
2023-04-19T17:08:57.046Z,99740.22
2023-04-19T17:13:01.562Z,99749.03
2023-04-19T17:17:04.704Z,99741.13
2023-04-19T17:21:07.729Z,99742.91
2023-04-19T17:25:11.074Z,99747.31
2023-04-19T17:29:15.777Z,99745.56
2023-04-19T17:33:18.893Z,99745.53
2023-04-19T17:37:22.128Z,99749.09
2023-04-19T17:41:25.234Z,99754.34
2023-04-19T17:45:29.924Z,99763.13
2023-04-19T17:49:32.995Z,99769.28
2023-04-19T17:53:36.135Z,99782.47
2023-04-19T17:57:39.174Z,99783.38
2023-04-19T18:01:43.602Z,99788.66
2023-04-19T18:05:46.694Z,99793.91
2023-04-19T18:09:49.699Z,99795.69
2023-04-19T18:13:52.870Z,99796.56
2023-04-19T18:17:57.339Z,99800.97
2023-04-19T18:22:01.417Z,99802.75
2023-04-19T18:26:05.103Z,99816.78
2023-04-19T18:30:09.181Z,99816.78
2023-04-19T18:34:13.894Z,99819.44
2023-04-19T18:38:16.974Z,99823.84
2023-04-19T18:42:20.173Z,99827.34
2023-04-19T18:46:24.247Z,99821.16
2023-04-19T18:50:28.814Z,99827.31
2023-04-19T18:54:31.816Z,99836.13
2023-04-19T18:58:34.835Z,99835.25
2023-04-19T19:02:40.450Z,99844.03
2023-04-19T19:06:45.572Z,99841.38
2023-04-19T19:11:13.791Z,99844.91
2023-04-19T19:15:11.962Z,99852.81
2023-04-19T19:19:15.303Z,99864.25
2023-04-19T19:23:20.491Z,99867.72
2023-04-19T19:27:29.314Z,99871.25
2023-04-19T19:31:32.326Z,99866.84
2023-04-19T19:35:35.982Z,99872.09
2023-04-19T19:39:40.605Z,99872.97
2023-04-19T19:43:45.201Z,99871.19
2023-04-19T19:47:49.960Z,99876.47
2023-04-19T19:51:58.483Z,99875.56
2023-04-19T19:56:04.292Z,99876.41
2023-04-19T20:04:17.260Z,99867.56
2023-04-19T20:08:20.413Z,99871.94
2023-04-19T20:12:24.862Z,99866.59
2023-04-19T20:16:29.090Z,99862.19
2023-04-19T20:20:32.250Z,99864.81
2023-04-19T20:24:35.260Z,99868.28
2023-04-19T20:28:39.635Z,99863.84
2023-04-19T20:32:43.307Z,99860.28
2023-04-19T20:36:47.271Z,99874.28
2023-04-19T20:40:50.702Z,99876.00
2023-04-19T20:44:55.106Z,99875.06
2023-04-19T20:48:58.217Z,99889.94
2023-04-19T20:53:01.383Z,99894.28
2023-04-19T20:57:04.861Z,99888.06
2023-04-19T21:01:10.084Z,99892.44
2023-04-19T21:05:13.212Z,99897.63
2023-04-19T21:09:16.495Z,99900.22
2023-04-19T21:13:19.721Z,99898.44
2023-04-19T21:17:24.401Z,99892.25
2023-04-19T21:21:28.065Z,99886.97
2023-04-19T21:25:31.192Z,99892.19
2023-04-19T21:29:34.614Z,99890.41
2023-04-19T21:33:39.080Z,99883.41
2023-04-19T21:37:42.129Z,99884.28
2023-04-19T21:41:45.186Z,99889.56
2023-04-19T21:45:48.222Z,99894.75
2023-04-19T21:49:53.348Z,99898.25
2023-04-19T21:53:56.461Z,99898.25
2023-04-19T21:57:59.763Z,99890.34
2023-04-19T22:02:03.159Z,99900.00
2023-04-19T22:06:08.546Z,99903.47
2023-04-19T22:10:13.766Z,99902.50
2023-04-19T22:14:17.646Z,99897.22
2023-04-19T22:18:20.893Z,99895.41
2023-04-19T22:22:25.510Z,99900.63
2023-04-19T22:26:29.352Z,99908.53
2023-04-19T22:30:32.432Z,99905.84
2023-04-19T22:34:36.531Z,99906.69
2023-04-19T22:38:40.962Z,99907.50
2023-04-19T22:42:44.069Z,99906.63
2023-04-19T22:46:47.340Z,99916.28
2023-04-19T22:50:52.528Z,99913.56
2023-04-19T22:54:57.025Z,99906.56
2023-04-19T22:59:00.095Z,99911.88
2023-04-19T23:03:03.651Z,99909.16
2023-04-19T23:07:07.075Z,99915.28
2023-04-19T23:11:11.492Z,99911.78
2023-04-19T23:15:14.837Z,99905.63
2023-04-19T23:19:18.201Z,99901.28
2023-04-19T23:23:21.504Z,99906.47
2023-04-19T23:27:26.598Z,99909.09
2023-04-19T23:31:29.714Z,99897.75
2023-04-19T23:35:32.816Z,99905.59
2023-04-19T23:39:35.926Z,99905.56
2023-04-19T23:43:40.499Z,99898.50
2023-04-19T23:47:43.583Z,99895.84
2023-04-19T23:51:48.889Z,99890.59
2023-04-19T23:55:51.970Z,99892.28
2023-04-19T23:59:56.454Z,99892.28
